Atlantic City, NJ

8:56 PM EDT on July 06, 2015 (GMT -0400)
APRSWXNET | | Change Station
CLOSE
Current Station
Personal Weather Station
Location: Absecon, NJ
Elevation: 9 ft
Nearby Weather Stations

Elev 9 ft 39.40 °N, 74.47 °W | Updated 31 minutes ago

Overcast
Overcast
76 °F
Feels Like 75 °F
N
3
Wind Variable Wind from ESE
Gusts 11.0 mph

Today
High -- | Low -- °F
--% Chance of Precip.
Yesterday
High -- | Low -- °F
Precip. -- in
5:37 AM 8:27 PM
Waning Gibbous, 70% visible
Pressure 30.09 in
Visibility 10.0 miles
Clouds Clear
Heat Index 75 °F
Dew Point 75 °F
Humidity 97%
Rainfall in
Snow Depth Not available.
UV 1 out of 12
Pollen 3.50 out of 12
Air Quality Not available.
Flu Activity Not available.
METAR KACY 062254Z 14008KT 10SM CLR 27/22 A3009 RMK AO2 SLP188 T02720222

More Conditions Fewer Conditions

Pressure 30.09 in
Visibility 10.0 miles
Clouds Clear
Heat Index 75 °F
Dew Point 75 °F
Humidity 97%
Rainfall in
Snow Depth Not available.
UV 1 out of 12
Pollen 3.50 out of 12
Air Quality Not available.
Flu Activity Not available.
METAR KACY 062254Z 14008KT 10SM CLR 27/22 A3009 RMK AO2 SLP188 T02720222

More Conditions Fewer Conditions

Nowcast | as of 5:59 PM EDT on July 6, 2015

Scattered showers and isolated thunderstorms will continue to develop and spread across the area through this evening. Some showers and thunderstorms will produce a period of heavy rainfall that will cause ponding on roadways and poor drainage areas. Locally gusty winds around 25 to 30 mph are also possible.

×

10-Day Weather Forecast

×

Almanac

Astronomy

Jul. 06, 2015 Rise Set
Actual Time
Civil Twilight
Nautical Twilight
Astronomical Twilight
Moon
Length of Visible Light
Length of Day
Tomorrow will be .
, % of the Moon is Illuminated

Today's Extremes

State Highs State Lows

Community

WunderPhotos

Upload Photos

1,835,682 photos uploaded!

WunderBlogs® & News

Nearby

Air Quality

  Air Quality AQ Index Pollutant
Not available.

Snow Depth

Station Depth Elevation

Earthquake Activity

City Distance Mag. Time & Date
Minimum magnitude displayed is 2.5.

Coastal Water Temperatures

Place Temperature

Stations

Nearby Weather Stations

Station Location Temp. Windchill Dew Point Humidity Wind Precip. Elev Updated Type